Time;durP1;ratioP1;P1;durP2;ratioP2;P2;SDS_P1;SDS_P2;PMS_P1;PMS_P2;Temp;Humidity;BMP_temperature;BMP_pressure;BME280_temperature;BME280_humidity;BME280_pressure;Samples;Min_cycle;Max_cycle;Signal;HPM_P1;HPM_P2
2022/09/19 00:00:25;;;;;;;0.37;0.33;;;;;;;;;;5029038;28;20072;-63
2022/09/19 00:02:50;;;;;;;0.60;0.40;;;;;;;;;;5029516;28;20472;-59
2022/09/19 00:05:16;;;;;;;0.40;0.30;;;;;;;;;;5043993;28;20094;-58
2022/09/19 00:07:43;;;;;;;0.40;0.30;;;;;;;;;;5030053;28;20037;-59
2022/09/19 00:10:08;;;;;;;0.40;0.40;;;;;;;;;;5029676;28;20688;-62
2022/09/19 00:12:33;;;;;;;0.55;0.43;;;;;;;;;;5029954;28;20501;-62
2022/09/19 00:14:59;;;;;;;0.77;0.45;;;;;;;;;;5029978;28;20037;-58
2022/09/19 00:17:24;;;;;;;0.65;0.40;;;;;;;;;;5029560;28;20565;-63
2022/09/19 00:19:50;;;;;;;0.57;0.40;;;;;;;;;;5029897;28;20048;-59
2022/09/19 00:22:15;;;;;;;0.30;0.22;;;;;;;;;;5029673;28;20704;-58
2022/09/19 00:24:48;;;;;;;0.50;0.40;;;;;;;;;;5030010;28;20484;-58
2022/09/19 00:27:15;;;;;;;0.35;0.32;;;;;;;;;;5029657;28;20060;-62
2022/09/19 00:29:42;;;;;;;0.57;0.40;;;;;;;;;;5029726;28;20045;-62
2022/09/19 00:32:12;;;;;;;0.30;0.30;;;;;;;;;;5029897;28;20103;-59
2022/09/19 00:34:42;;;;;;;0.50;0.40;;;;;;;;;;5017603;28;20044;-58
2022/09/19 00:37:07;;;;;;;0.35;0.30;;;;;;;;;;5029813;28;20042;-59
2022/09/19 00:39:32;;;;;;;0.52;0.45;;;;;;;;;;5045715;28;20045;-62
2022/09/19 00:41:58;;;;;;;0.60;0.40;;;;;;;;;;5041026;28;20068;-58
2022/09/19 00:44:23;;;;;;;0.67;0.40;;;;;;;;;;5029517;28;20042;-58
2022/09/19 00:47:09;;;;;;;0.40;0.40;;;;;;;;;;5029483;28;20048;-59
2022/09/19 00:49:38;;;;;;;0.35;0.30;;;;;;;;;;5028671;28;20716;-58
2022/09/19 00:52:05;;;;;;;0.30;0.30;;;;;;;;;;5029484;28;20517;-59
2022/09/19 00:54:32;;;;;;;0.63;0.45;;;;;;;;;;5029342;28;20050;-63
2022/09/19 00:56:59;;;;;;;0.73;0.50;;;;;;;;;;5047658;28;20448;-63
2022/09/19 00:59:26;;;;;;;0.60;0.50;;;;;;;;;;5035768;28;20041;-58
2022/09/19 01:01:53;;;;;;;0.40;0.40;;;;;;;;;;5028893;28;20057;-62
2022/09/19 01:04:20;;;;;;;0.63;0.30;;;;;;;;;;5028078;28;20231;-59
2022/09/19 01:06:45;;;;;;;0.85;0.50;;;;;;;;;;5026940;28;20041;-58
2022/09/19 01:09:26;;;;;;;0.55;0.40;;;;;;;;;;5029275;28;20049;-62
2022/09/19 01:11:58;;;;;;;0.50;0.40;;;;;;;;;;5028810;28;20049;-59
2022/09/19 01:14:53;;;;;;;0.43;0.38;;;;;;;;;;5030350;28;20098;-62
2022/09/19 01:17:46;;;;;;;0.63;0.40;;;;;;;;;;5037824;28;20061;-63
2022/09/19 01:20:20;;;;;;;1.27;0.50;;;;;;;;;;5035536;28;20055;-62
2022/09/19 01:22:45;;;;;;;0.38;0.32;;;;;;;;;;5034640;28;20476;-58
2022/09/19 01:25:31;;;;;;;0.40;0.30;;;;;;;;;;5029334;28;20499;-58
2022/09/19 01:28:06;;;;;;;0.40;0.40;;;;;;;;;;5029048;28;20128;-59
2022/09/19 01:30:32;;;;;;;0.57;0.40;;;;;;;;;;5028789;28;20049;-59
2022/09/19 01:33:10;;;;;;;0.80;0.50;;;;;;;;;;5028858;28;20049;-58
2022/09/19 01:35:37;;;;;;;0.30;0.30;;;;;;;;;;5028831;28;20042;-58
2022/09/19 01:38:08;;;;;;;0.60;0.40;;;;;;;;;;5033128;28;20666;-59
2022/09/19 01:40:35;;;;;;;0.32;0.30;;;;;;;;;;5037490;28;20383;-58
2022/09/19 01:43:00;;;;;;;0.30;0.30;;;;;;;;;;5028643;28;20048;-58
2022/09/19 01:45:31;;;;;;;0.40;0.32;;;;;;;;;;5028728;28;20058;-62
2022/09/19 01:48:07;;;;;;;0.40;0.30;;;;;;;;;;5028653;28;20049;-59
2022/09/19 01:50:45;;;;;;;0.75;0.40;;;;;;;;;;5028515;28;20049;-58
2022/09/19 01:53:31;;;;;;;0.63;0.43;;;;;;;;;;5028577;28;20057;-62
2022/09/19 01:56:09;;;;;;;0.60;0.40;;;;;;;;;;5028712;28;20073;-62
2022/09/19 01:58:41;;;;;;;0.35;0.30;;;;;;;;;;5028491;28;20506;-59
2022/09/19 02:01:12;;;;;;;0.50;0.40;;;;;;;;;;5028201;28;20042;-62
2022/09/19 02:03:37;;;;;;;0.40;0.40;;;;;;;;;;5028716;28;20401;-62
2022/09/19 02:06:08;;;;;;;0.37;0.33;;;;;;;;;;5028619;28;20037;-58
2022/09/19 02:08:39;;;;;;;0.43;0.40;;;;;;;;;;5030719;28;20045;-59
2022/09/19 02:11:11;;;;;;;0.60;0.40;;;;;;;;;;5031014;28;20038;-62
2022/09/19 02:13:36;;;;;;;0.73;0.60;;;;;;;;;;5031516;28;20127;-58
2022/09/19 02:16:08;;;;;;;0.30;0.30;;;;;;;;;;5050745;28;20179;-62
2022/09/19 02:19:09;;;;;;;0.50;0.45;;;;;;;;;;5044618;28;20040;-62
2022/09/19 02:21:40;;;;;;;1.05;0.60;;;;;;;;;;5028895;28;20033;-59
2022/09/19 02:24:08;;;;;;;0.45;0.40;;;;;;;;;;5029452;28;20038;-59
2022/09/19 02:26:35;;;;;;;0.43;0.40;;;;;;;;;;5024946;28;20050;-58
2022/09/19 02:29:02;;;;;;;0.50;0.40;;;;;;;;;;5020078;28;20091;-62
2022/09/19 02:31:27;;;;;;;0.40;0.30;;;;;;;;;;5028815;28;20049;-62
2022/09/19 02:33:58;;;;;;;0.57;0.40;;;;;;;;;;5029327;28;20045;-62
2022/09/19 02:36:26;;;;;;;0.70;0.47;;;;;;;;;;5029099;28;20049;-62
2022/09/19 02:38:54;;;;;;;0.80;0.50;;;;;;;;;;5029175;28;20045;-62
2022/09/19 02:41:21;;;;;;;0.60;0.50;;;;;;;;;;5028656;28;20049;-62
2022/09/19 02:43:54;;;;;;;0.52;0.40;;;;;;;;;;5023398;28;20053;-59
2022/09/19 02:46:30;;;;;;;0.43;0.30;;;;;;;;;;5022064;28;20046;-62
2022/09/19 02:48:59;;;;;;;0.60;0.40;;;;;;;;;;5029115;28;20052;-63
2022/09/19 02:51:30;;;;;;;0.50;0.32;;;;;;;;;;5028875;28;20089;-62
2022/09/19 02:54:00;;;;;;;0.63;0.30;;;;;;;;;;5028838;28;20049;-63
2022/09/19 02:56:29;;;;;;;0.35;0.30;;;;;;;;;;5036402;28;20057;-63
2022/09/19 02:58:59;;;;;;;0.75;0.40;;;;;;;;;;5031341;28;20045;-59
2022/09/19 03:01:25;;;;;;;0.32;0.32;;;;;;;;;;5031213;28;20584;-59
2022/09/19 03:04:12;;;;;;;0.35;0.35;;;;;;;;;;5030967;28;20050;-62
2022/09/19 03:06:49;;;;;;;0.80;0.47;;;;;;;;;;5031374;28;20125;-59
2022/09/19 03:09:16;;;;;;;0.52;0.40;;;;;;;;;;5031147;28;20513;-62
2022/09/19 03:11:48;;;;;;;0.60;0.50;;;;;;;;;;5030886;28;20060;-62
2022/09/19 03:14:14;;;;;;;0.57;0.40;;;;;;;;;;5030904;28;20046;-58
2022/09/19 03:16:41;;;;;;;0.50;0.40;;;;;;;;;;5031001;28;20041;-62
2022/09/19 03:19:08;;;;;;;0.65;0.57;;;;;;;;;;5044639;28;20072;-59
2022/09/19 03:21:34;;;;;;;0.65;0.40;;;;;;;;;;5031066;28;20073;-62
2022/09/19 03:23:59;;;;;;;0.60;0.47;;;;;;;;;;5030651;28;20438;-62
2022/09/19 03:26:30;;;;;;;0.60;0.40;;;;;;;;;;5029728;28;20374;-58
2022/09/19 03:28:56;;;;;;;0.63;0.40;;;;;;;;;;5030273;28;20053;-58
2022/09/19 03:31:21;;;;;;;0.40;0.40;;;;;;;;;;5030726;28;20037;-59
2022/09/19 03:33:48;;;;;;;0.40;0.40;;;;;;;;;;5030387;28;20045;-62
2022/09/19 03:36:13;;;;;;;1.23;0.50;;;;;;;;;;5030461;28;20056;-59
2022/09/19 03:38:44;;;;;;;0.30;0.30;;;;;;;;;;5030743;28;20120;-59
2022/09/19 03:41:17;;;;;;;0.55;0.32;;;;;;;;;;5030588;28;20049;-63
2022/09/19 03:43:45;;;;;;;;;;;;;;;;;;5031056;28;20084;-62
2022/09/19 03:46:12;;;;;;;0.63;0.50;;;;;;;;;;5030283;28;20347;-58
2022/09/19 03:48:38;;;;;;;0.43;0.35;;;;;;;;;;5030548;28;20045;-62
2022/09/19 03:51:03;;;;;;;0.40;0.40;;;;;;;;;;5030471;28;20103;-63
2022/09/19 03:53:30;;;;;;;0.47;0.40;;;;;;;;;;5030463;28;20041;-62
2022/09/19 03:55:56;;;;;;;0.93;0.60;;;;;;;;;;5030373;28;20052;-62
2022/09/19 03:58:22;;;;;;;0.40;0.32;;;;;;;;;;5030163;28;20049;-62
2022/09/19 04:00:47;;;;;;;0.50;0.40;;;;;;;;;;5030464;28;20057;-62
2022/09/19 04:03:13;;;;;;;0.30;0.30;;;;;;;;;;5030031;28;20406;-62
2022/09/19 04:05:38;;;;;;;0.40;0.30;;;;;;;;;;5030343;28;20045;-58
2022/09/19 04:08:03;;;;;;;0.40;0.37;;;;;;;;;;5030127;28;20057;-61
2022/09/19 04:10:29;;;;;;;0.20;0.20;;;;;;;;;;5029865;28;20056;-62
2022/09/19 04:12:56;;;;;;;0.30;0.30;;;;;;;;;;5029846;28;20138;-59
2022/09/19 04:15:21;;;;;;;0.40;0.30;;;;;;;;;;5029947;28;20103;-62
2022/09/19 04:17:46;;;;;;;0.52;0.43;;;;;;;;;;5034631;28;20040;-62
2022/09/19 04:20:12;;;;;;;0.63;0.40;;;;;;;;;;5039249;28;20041;-58
2022/09/19 04:22:37;;;;;;;0.30;0.30;;;;;;;;;;5029369;28;20056;-63
2022/09/19 04:25:07;;;;;;;0.63;0.40;;;;;;;;;;5029714;28;20284;-58
2022/09/19 04:27:33;;;;;;;0.40;0.38;;;;;;;;;;5029780;28;20046;-63
2022/09/19 04:30:00;;;;;;;0.43;0.40;;;;;;;;;;5029742;28;20044;-62
2022/09/19 04:32:25;;;;;;;0.73;0.50;;;;;;;;;;5029949;28;20041;-63
2022/09/19 04:34:55;;;;;;;0.67;0.50;;;;;;;;;;5029257;28;20060;-62
2022/09/19 04:37:20;;;;;;;0.50;0.50;;;;;;;;;;5029756;28;20510;-62
2022/09/19 04:39:48;;;;;;;0.55;0.40;;;;;;;;;;5029019;28;20048;-62
2022/09/19 04:42:13;;;;;;;0.52;0.40;;;;;;;;;;5029585;28;20750;-58
2022/09/19 04:44:38;;;;;;;0.30;0.30;;;;;;;;;;5028923;28;20119;-63
2022/09/19 04:47:06;;;;;;;0.57;0.30;;;;;;;;;;5028078;28;20284;-62
2022/09/19 04:49:34;;;;;;;0.32;0.30;;;;;;;;;;5029289;28;20037;-62
2022/09/19 04:52:00;;;;;;;0.50;0.40;;;;;;;;;;5029445;28;20045;-59
2022/09/19 04:54:25;;;;;;;0.40;0.40;;;;;;;;;;5029277;28;20054;-58
2022/09/19 04:56:51;;;;;;;0.50;0.40;;;;;;;;;;5029435;28;20073;-59
2022/09/19 04:59:16;;;;;;;0.30;0.30;;;;;;;;;;5029346;28;20463;-62
2022/09/19 05:01:42;;;;;;;0.40;0.40;;;;;;;;;;5029050;28;20072;-59
2022/09/19 05:04:08;;;;;;;0.60;0.43;;;;;;;;;;5028132;28;20391;-63
2022/09/19 05:06:33;;;;;;;0.73;0.40;;;;;;;;;;5034714;28;20484;-59
2022/09/19 05:08:59;;;;;;;0.50;0.40;;;;;;;;;;5029150;28;20085;-62
2022/09/19 05:11:24;;;;;;;0.43;0.40;;;;;;;;;;5029328;28;20467;-59
2022/09/19 05:13:51;;;;;;;0.65;0.38;;;;;;;;;;5028964;28;20037;-62
2022/09/19 05:16:16;;;;;;;0.50;0.50;;;;;;;;;;5029212;28;20050;-61
2022/09/19 05:18:42;;;;;;;0.50;0.40;;;;;;;;;;5041299;28;20045;-62
2022/09/19 05:21:09;;;;;;;0.37;0.30;;;;;;;;;;5030570;28;20045;-59
2022/09/19 05:23:36;;;;;;;0.60;0.50;;;;;;;;;;5028842;28;20292;-62
2022/09/19 05:26:02;;;;;;;0.68;0.50;;;;;;;;;;5028537;28;20041;-59
2022/09/19 05:28:28;;;;;;;0.50;0.32;;;;;;;;;;5029118;28;20402;-62
2022/09/19 05:30:56;;;;;;;0.50;0.43;;;;;;;;;;5028855;28;20497;-58
2022/09/19 05:33:26;;;;;;;0.63;0.50;;;;;;;;;;5028961;28;20354;-58
2022/09/19 05:35:51;;;;;;;1.13;0.50;;;;;;;;;;5028515;28;20049;-62
2022/09/19 05:38:16;;;;;;;0.68;0.50;;;;;;;;;;5028644;28;20034;-62
2022/09/19 05:40:42;;;;;;;0.60;0.40;;;;;;;;;;5028551;28;20061;-58
2022/09/19 05:43:07;;;;;;;0.60;0.50;;;;;;;;;;5028289;28;20045;-59
2022/09/19 05:45:33;;;;;;;0.38;0.38;;;;;;;;;;5028439;28;20145;-59
2022/09/19 05:48:04;;;;;;;0.52;0.40;;;;;;;;;;5028615;28;20067;-58
2022/09/19 05:50:29;;;;;;;0.45;0.40;;;;;;;;;;5030415;28;20037;-64
2022/09/19 05:55:38;;;;;;;25.35;1.77;;;;;;;;;;5040500;28;20464;-59
2022/09/19 05:58:06;;;;;;;36.27;2.50;;;;;;;;;;5037764;28;20520;-61
2022/09/19 06:00:31;;;;;;;24.83;1.58;;;;;;;;;;5032054;28;20052;-59
2022/09/19 06:03:00;;;;;;;25.15;1.95;;;;;;;;;;5032089;28;20034;-61
2022/09/19 06:05:25;;;;;;;13.13;1.45;;;;;;;;;;5031813;28;20132;-61
2022/09/19 06:07:56;;;;;;;16.05;1.35;;;;;;;;;;5031960;28;20125;-61
2022/09/19 06:10:23;;;;;;;21.55;1.52;;;;;;;;;;5031587;28;20045;-59
2022/09/19 06:12:48;;;;;;;14.60;1.70;;;;;;;;;;5031856;28;20055;-61
2022/09/19 06:15:13;;;;;;;11.30;1.10;;;;;;;;;;5031425;28;20072;-59
2022/09/19 06:17:39;;;;;;;12.52;1.10;;;;;;;;;;5035319;28;20060;-59
2022/09/19 06:20:04;;;;;;;7.90;0.70;;;;;;;;;;5042468;28;20124;-59
2022/09/19 06:22:30;;;;;;;5.82;0.93;;;;;;;;;;5031748;28;20090;-59
2022/09/19 06:24:55;;;;;;;10.40;1.25;;;;;;;;;;5031480;28;20401;-59
2022/09/19 06:27:20;;;;;;;7.10;0.90;;;;;;;;;;5031823;28;20510;-61
2022/09/19 06:29:46;;;;;;;4.25;1.02;;;;;;;;;;5031550;28;20311;-61
2022/09/19 06:32:11;;;;;;;2.78;0.80;;;;;;;;;;5031798;28;20049;-59
2022/09/19 06:34:37;;;;;;;2.85;0.77;;;;;;;;;;5031593;28;20132;-61
2022/09/19 06:37:02;;;;;;;5.28;0.88;;;;;;;;;;5031457;28;20110;-61
2022/09/19 06:39:28;;;;;;;2.47;0.70;;;;;;;;;;5031571;28;20054;-61
2022/09/19 06:41:54;;;;;;;3.33;0.67;;;;;;;;;;5031624;28;20464;-61
2022/09/19 06:44:20;;;;;;;4.70;0.70;;;;;;;;;;5030396;28;20770;-59
2022/09/19 06:46:45;;;;;;;4.30;0.82;;;;;;;;;;5030853;28;20569;-59
2022/09/19 06:49:10;;;;;;;8.10;0.93;;;;;;;;;;5031307;28;20056;-58
2022/09/19 06:51:36;;;;;;;2.53;0.70;;;;;;;;;;5031279;28;20045;-61
2022/09/19 06:54:01;;;;;;;1.83;0.70;;;;;;;;;;5036787;28;20127;-61
2022/09/19 06:56:26;;;;;;;1.60;0.47;;;;;;;;;;5038564;28;20288;-60
2022/09/19 06:58:52;;;;;;;4.68;0.70;;;;;;;;;;5032827;28;20425;-59
2022/09/19 07:01:17;;;;;;;2.27;0.60;;;;;;;;;;5034338;28;20060;-62
2022/09/19 07:03:43;;;;;;;1.45;0.57;;;;;;;;;;5031676;28;20049;-59
2022/09/19 07:06:08;;;;;;;1.65;0.63;;;;;;;;;;5032761;28;20132;-58
2022/09/19 07:08:33;;;;;;;1.50;0.68;;;;;;;;;;5035956;28;20660;-58
2022/09/19 07:10:59;;;;;;;1.50;0.80;;;;;;;;;;5028518;28;20076;-61
2022/09/19 07:13:24;;;;;;;3.83;0.77;;;;;;;;;;5036977;28;20508;-61
2022/09/19 07:15:49;;;;;;;4.60;0.93;;;;;;;;;;5030219;28;20069;-59
2022/09/19 07:18:14;;;;;;;1.30;0.90;;;;;;;;;;5030035;28;20283;-59
2022/09/19 07:20:40;;;;;;;3.20;0.77;;;;;;;;;;5043951;28;20300;-61
2022/09/19 07:23:10;;;;;;;2.30;0.65;;;;;;;;;;5036005;28;20045;-61
2022/09/19 07:25:37;;;;;;;2.00;0.57;;;;;;;;;;5049093;28;20049;-61
2022/09/19 07:28:04;;;;;;;0.90;0.50;;;;;;;;;;5037151;28;20045;-60
2022/09/19 07:30:30;;;;;;;2.63;0.82;;;;;;;;;;5025697;28;20045;-60
2022/09/19 07:32:57;;;;;;;1.77;0.68;;;;;;;;;;5031386;28;20049;-59
2022/09/19 07:35:23;;;;;;;1.63;0.70;;;;;;;;;;5037937;28;20076;-61
2022/09/19 07:37:51;;;;;;;2.50;0.70;;;;;;;;;;5040627;28;20053;-60
2022/09/19 07:40:16;;;;;;;1.48;0.70;;;;;;;;;;5039180;28;20107;-61
2022/09/19 07:42:42;;;;;;;3.07;0.63;;;;;;;;;;5040107;28;20037;-60
2022/09/19 07:45:07;;;;;;;3.33;0.60;;;;;;;;;;5030106;28;21698;-61
2022/09/19 07:47:32;;;;;;;0.73;0.55;;;;;;;;;;5037018;28;20068;-59
2022/09/19 07:49:58;;;;;;;1.25;0.60;;;;;;;;;;5039173;28;20128;-60
2022/09/19 07:52:23;;;;;;;0.77;0.50;;;;;;;;;;5043536;28;20045;-64
2022/09/19 07:54:49;;;;;;;9.30;4.80;;;;;;;;;;5037150;28;20131;-60
2022/09/19 07:57:15;;;;;;;9.88;7.82;;;;;;;;;;5035730;28;20292;-60
2022/09/19 07:59:41;;;;;;;10.18;5.45;;;;;;;;;;5030900;28;20103;-64
2022/09/19 08:02:08;;;;;;;8.85;4.13;;;;;;;;;;5036550;28;20045;-62
2022/09/19 08:04:33;;;;;;;4.57;2.45;;;;;;;;;;5033225;28;20037;-62
2022/09/19 08:06:58;;;;;;;5.77;2.10;;;;;;;;;;5033485;28;20044;-64
2022/09/19 08:09:24;;;;;;;6.23;2.00;;;;;;;;;;5041441;28;20766;-64
2022/09/19 08:11:49;;;;;;;5.33;2.03;;;;;;;;;;5036070;28;20571;-64
2022/09/19 08:14:14;;;;;;;5.17;2.10;;;;;;;;;;5028984;28;20049;-61
2022/09/19 08:16:39;;;;;;;3.00;1.77;;;;;;;;;;5038003;28;20379;-61
2022/09/19 08:19:05;;;;;;;7.13;1.90;;;;;;;;;;5033871;28;20500;-62
2022/09/19 08:21:31;;;;;;;4.25;2.03;;;;;;;;;;5032186;28;20397;-63
2022/09/19 08:23:57;;;;;;;4.03;1.70;;;;;;;;;;5036869;28;20092;-60
2022/09/19 08:26:24;;;;;;;5.30;1.67;;;;;;;;;;5045304;28;20079;-61
2022/09/19 08:28:50;;;;;;;4.25;1.75;;;;;;;;;;5036631;28;20064;-60
2022/09/19 08:31:15;;;;;;;3.10;1.50;;;;;;;;;;5020856;28;20029;-62
2022/09/19 08:33:41;;;;;;;4.13;1.33;;;;;;;;;;5014111;28;20099;-61
2022/09/19 08:36:06;;;;;;;3.33;1.50;;;;;;;;;;5020400;28;20065;-62
2022/09/19 08:38:32;;;;;;;3.17;1.37;;;;;;;;;;5023772;28;20438;-58
2022/09/19 08:41:03;;;;;;;3.20;1.30;;;;;;;;;;5028369;28;20513;-60
2022/09/19 08:43:31;;;;;;;2.53;1.10;;;;;;;;;;5017676;28;20299;-61
2022/09/19 08:46:03;;;;;;;2.13;1.00;;;;;;;;;;5022543;28;20110;-60
2022/09/19 08:48:38;;;;;;;3.33;1.02;;;;;;;;;;5023427;28;20045;-61
2022/09/19 08:51:11;;;;;;;2.03;0.98;;;;;;;;;;5025639;28;20483;-61
2022/09/19 08:53:40;;;;;;;2.20;1.00;;;;;;;;;;5025006;28;20767;-60
2022/09/19 08:56:06;;;;;;;1.98;0.95;;;;;;;;;;5026052;28;20054;-63
2022/09/19 08:58:34;;;;;;;3.45;0.90;;;;;;;;;;5018652;28;20060;-64
2022/09/19 09:01:04;;;;;;;2.13;0.90;;;;;;;;;;5020379;28;20057;-63
2022/09/19 09:03:51;;;;;;;2.28;1.00;;;;;;;;;;5021159;28;20048;-63
2022/09/19 09:06:29;;;;;;;9.30;7.30;;;;;;;;;;4997169;28;20053;-61
2022/09/19 09:08:54;;;;;;;24.25;16.80;;;;;;;;;;5061548;28;20138;-62
2022/09/19 09:11:22;;;;;;;19.43;14.37;;;;;;;;;;5067932;28;20044;-59
2022/09/19 09:13:48;;;;;;;15.27;11.60;;;;;;;;;;5065963;28;20305;-60
2022/09/19 09:16:16;;;;;;;14.25;10.43;;;;;;;;;;5063361;28;20048;-61
2022/09/19 09:18:58;;;;;;;14.68;10.13;;;;;;;;;;5059852;28;20167;-62
2022/09/19 09:21:42;;;;;;;12.23;8.85;;;;;;;;;;5069760;28;20083;-61
2022/09/19 09:24:13;;;;;;;12.25;8.80;;;;;;;;;;5071810;28;20135;-61
2022/09/19 09:26:40;;;;;;;11.55;8.02;;;;;;;;;;5066880;28;20066;-61
2022/09/19 09:29:08;;;;;;;11.38;8.23;;;;;;;;;;5062408;28;20460;-62
2022/09/19 09:31:38;;;;;;;9.90;6.93;;;;;;;;;;5067622;28;20861;-63
2022/09/19 09:34:07;;;;;;;9.65;6.68;;;;;;;;;;5068543;28;20056;-62
2022/09/19 09:36:41;;;;;;;8.00;5.90;;;;;;;;;;5069753;28;20446;-61
2022/09/19 09:39:16;;;;;;;7.93;5.60;;;;;;;;;;5072926;28;20550;-62
2022/09/19 09:41:47;;;;;;;7.10;5.45;;;;;;;;;;5065744;28;20076;-61
2022/09/19 09:44:13;;;;;;;6.43;5.05;;;;;;;;;;5054427;28;20067;-62
2022/09/19 09:46:52;;;;;;;6.55;4.70;;;;;;;;;;5061035;28;20423;-62
2022/09/19 09:49:21;;;;;;;8.40;4.85;;;;;;;;;;5059760;28;20064;-61
2022/09/19 09:51:49;;;;;;;7.05;4.40;;;;;;;;;;5068185;28;20051;-62
2022/09/19 09:57:29;;;;;;;5.57;3.80;;;;;;;;;;5058442;28;20770;-62
2022/09/19 10:05:33;;;;;;;4.80;3.45;;;;;;;;;;5062114;28;20093;-61
2022/09/19 10:08:15;;;;;;;3.85;2.60;;;;;;;;;;5063877;28;20055;-62
2022/09/19 10:10:41;;;;;;;;;;;;;;;;;;5063158;28;20058;-61
2022/09/19 10:13:25;;;;;;;3.58;2.42;;;;;;;;;;5070193;28;20407;-62
2022/09/19 10:15:54;;;;;;;4.22;2.58;;;;;;;;;;5064960;28;20457;-62
2022/09/19 10:18:19;;;;;;;3.50;2.40;;;;;;;;;;5064531;28;20522;-61
2022/09/19 10:20:51;;;;;;;3.55;2.10;;;;;;;;;;5061805;28;20059;-62
2022/09/19 10:23:23;;;;;;;2.90;2.10;;;;;;;;;;5062889;28;20599;-62
2022/09/19 10:25:59;;;;;;;3.70;2.15;;;;;;;;;;5063938;28;20131;-62
2022/09/19 10:28:27;;;;;;;3.03;1.80;;;;;;;;;;5063729;28;20053;-61
2022/09/19 10:30:57;;;;;;;3.08;2.03;;;;;;;;;;5067417;28;20115;-62
2022/09/19 10:33:28;;;;;;;3.17;1.83;;;;;;;;;;5081985;28;20518;-62
2022/09/19 10:35:58;;;;;;;2.60;1.60;;;;;;;;;;5073928;28;20048;-61
2022/09/19 10:38:26;;;;;;;3.10;1.80;;;;;;;;;;5086402;28;20055;-61
2022/09/19 10:40:56;;;;;;;2.67;1.58;;;;;;;;;;5086862;28;20163;-62
2022/09/19 10:43:31;;;;;;;3.05;1.58;;;;;;;;;;5088167;28;20131;-61
2022/09/19 10:45:57;;;;;;;2.47;1.42;;;;;;;;;;5075731;28;20123;-61
2022/09/19 10:48:29;;;;;;;1.70;1.10;;;;;;;;;;5078777;28;20044;-61
2022/09/19 10:50:54;;;;;;;3.83;1.17;;;;;;;;;;5081815;28;20389;-62
2022/09/19 10:53:27;;;;;;;1.83;1.20;;;;;;;;;;5076540;28;20518;-61
2022/09/19 10:55:53;;;;;;;2.08;1.17;;;;;;;;;;5076747;28;20040;-61
2022/09/19 10:58:26;;;;;;;1.60;1.00;;;;;;;;;;5058056;28;20036;-61
2022/09/19 11:00:54;;;;;;;2.08;1.27;;;;;;;;;;5078850;28;20060;-61
2022/09/19 11:03:31;;;;;;;1.60;1.00;;;;;;;;;;5073874;28;20044;-63
2022/09/19 11:06:02;;;;;;;2.15;1.10;;;;;;;;;;5076185;28;20405;-62
2022/09/19 11:08:28;;;;;;;1.75;1.00;;;;;;;;;;5081258;28;20036;-62
2022/09/19 11:10:53;;;;;;;1.83;1.10;;;;;;;;;;5077420;28;20056;-61
2022/09/19 11:13:22;;;;;;;1.15;0.80;;;;;;;;;;5069503;28;20048;-62
2022/09/19 11:15:59;;;;;;;1.60;0.90;;;;;;;;;;5075211;28;20060;-61
2022/09/19 11:18:26;;;;;;;1.33;0.80;;;;;;;;;;5079555;28;20046;-61
2022/09/19 11:20:51;;;;;;;1.10;0.80;;;;;;;;;;5073950;28;20079;-62
2022/09/19 11:23:43;;;;;;;1.27;0.73;;;;;;;;;;5084386;28;20036;-61
2022/09/19 11:26:19;;;;;;;1.40;0.90;;;;;;;;;;5088689;28;20051;-61
2022/09/19 11:28:55;;;;;;;1.35;0.90;;;;;;;;;;5085137;28;20465;-61
2022/09/19 11:31:41;;;;;;;1.65;1.00;;;;;;;;;;5072633;28;20048;-62
2022/09/19 11:34:22;;;;;;;1.15;0.70;;;;;;;;;;5065339;28;20044;-61
2022/09/19 11:36:56;;;;;;;1.13;0.73;;;;;;;;;;5083334;28;20035;-61
2022/09/19 11:39:40;;;;;;;1.30;0.80;;;;;;;;;;5083813;28;20052;-62
2022/09/19 11:42:14;;;;;;;1.40;0.80;;;;;;;;;;5081923;28;20040;-61
2022/09/19 11:44:49;;;;;;;0.80;0.60;;;;;;;;;;5084662;28;20495;-62
2022/09/19 11:47:14;;;;;;;0.90;0.60;;;;;;;;;;5081125;28;20122;-61
2022/09/19 11:49:51;;;;;;;1.40;0.82;;;;;;;;;;5087817;28;20571;-61
2022/09/19 11:52:26;;;;;;;1.02;0.70;;;;;;;;;;5088523;28;20036;-61
2022/09/19 11:55:12;;;;;;;2.10;0.80;;;;;;;;;;5082284;28;20040;-60
2022/09/19 11:57:41;;;;;;;1.30;0.80;;;;;;;;;;5086055;28;20127;-60
2022/09/19 12:00:20;;;;;;;0.75;0.60;;;;;;;;;;5072848;28;20051;-60
2022/09/19 12:02:49;;;;;;;1.00;0.70;;;;;;;;;;5070764;28;20095;-61
2022/09/19 12:05:15;;;;;;;1.00;0.70;;;;;;;;;;5082400;28;20123;-59
2022/09/19 12:07:44;;;;;;;1.23;0.70;;;;;;;;;;5088480;28;20098;-62
2022/09/19 12:10:12;;;;;;;0.80;0.57;;;;;;;;;;5079283;28;20171;-62
2022/09/19 12:12:40;;;;;;;1.00;0.50;;;;;;;;;;5080057;28;20051;-64
2022/09/19 12:15:20;;;;;;;0.98;0.50;;;;;;;;;;5084363;28;20147;-60
2022/09/19 12:17:50;;;;;;;3.85;0.65;;;;;;;;;;5082836;28;20617;-63
2022/09/19 12:20:45;;;;;;;1.17;0.68;;;;;;;;;;5076640;28;20507;-64
2022/09/19 12:26:17;;;;;;;1.33;0.70;;;;;;;;;;5075499;28;20060;-60
2022/09/19 12:28:44;;;;;;;0.63;0.47;;;;;;;;;;5077944;28;20047;-62
2022/09/19 12:31:10;;;;;;;1.15;0.60;;;;;;;;;;5073968;28;20131;-59
2022/09/19 12:33:44;;;;;;;0.90;0.70;;;;;;;;;;5075327;28;20040;-61
2022/09/19 12:36:30;;;;;;;0.65;0.50;;;;;;;;;;5075413;28;20066;-63
2022/09/19 12:39:02;;;;;;;1.17;0.77;;;;;;;;;;5077296;28;20412;-61
2022/09/19 12:41:27;;;;;;;;;;;;;;;;;;5069111;28;20084;-61
2022/09/19 12:44:08;;;;;;;0.90;0.50;;;;;;;;;;5073967;28;19975;-61
2022/09/19 12:46:42;;;;;;;1.10;0.60;;;;;;;;;;5075207;28;20097;-62
2022/09/19 12:49:07;;;;;;;2.28;0.50;;;;;;;;;;5075258;28;20074;-62
2022/09/19 12:51:46;;;;;;;1.70;0.80;;;;;;;;;;5067520;28;20504;-59
2022/09/19 12:54:25;;;;;;;1.70;0.90;;;;;;;;;;5068426;28;20040;-63
2022/09/19 12:57:10;;;;;;;1.30;0.90;;;;;;;;;;5047400;28;20049;-63
2022/09/19 12:59:36;;;;;;;1.80;1.00;;;;;;;;;;5071386;28;20428;-60
2022/09/19 13:02:33;;;;;;;1.45;0.85;;;;;;;;;;5065837;28;20056;-62
2022/09/19 13:04:59;;;;;;;1.25;0.90;;;;;;;;;;5026707;28;20441;-63
2022/09/19 13:07:31;;;;;;;2.37;0.80;;;;;;;;;;5077270;28;20778;-60
2022/09/19 13:10:15;;;;;;;3.72;1.25;;;;;;;;;;5078170;28;21089;-62
2022/09/19 13:13:00;;;;;;;1.83;1.10;;;;;;;;;;5072506;28;20159;-62
2022/09/19 13:15:38;;;;;;;1.83;1.02;;;;;;;;;;5076325;28;20048;-64
2022/09/19 13:23:45;;;;;;;2.95;1.08;;;;;;;;;;5021630;28;20203;-62
2022/09/19 13:26:17;;;;;;;1.67;1.00;;;;;;;;;;5017474;28;20037;-60
2022/09/19 13:28:45;;;;;;;1.77;1.13;;;;;;;;;;5019504;28;20407;-59
2022/09/19 13:31:12;;;;;;;1.10;0.70;;;;;;;;;;5020222;28;20538;-59
2022/09/19 13:33:44;;;;;;;1.23;0.85;;;;;;;;;;5016356;28;20053;-59
2022/09/19 13:36:10;;;;;;;1.10;0.70;;;;;;;;;;5019547;28;20087;-60
2022/09/19 13:38:38;;;;;;;1.83;1.17;;;;;;;;;;5018663;28;20057;-60
2022/09/19 13:41:04;;;;;;;2.20;1.20;;;;;;;;;;5020825;28;20092;-60
2022/09/19 13:43:34;;;;;;;1.50;1.00;;;;;;;;;;5030945;28;20084;-60
2022/09/19 13:46:10;;;;;;;1.58;1.00;;;;;;;;;;5035129;28;20622;-60
2022/09/19 13:49:14;;;;;;;1.08;0.80;;;;;;;;;;5020113;28;20049;-60
2022/09/19 13:51:44;;;;;;;1.92;1.00;;;;;;;;;;4931109;28;20091;-59
2022/09/19 13:54:30;;;;;;;1.38;0.90;;;;;;;;;;4927532;28;20078;-60
2022/09/19 13:57:04;;;;;;;1.48;0.80;;;;;;;;;;4935418;28;20053;-59
2022/09/19 13:59:46;;;;;;;2.28;1.05;;;;;;;;;;4956621;28;20537;-59
2022/09/19 14:02:11;;;;;;;1.63;0.93;;;;;;;;;;4954100;28;20109;-64
2022/09/19 14:04:53;;;;;;;1.80;0.93;;;;;;;;;;4958105;28;20541;-63
2022/09/19 14:07:38;;;;;;;1.27;0.93;;;;;;;;;;4950953;28;20160;-62
2022/09/19 14:10:17;;;;;;;2.08;0.90;;;;;;;;;;4955625;28;20051;-63
2022/09/19 14:12:46;;;;;;;3.13;1.20;;;;;;;;;;4957091;28;20047;-72
2022/09/19 14:15:31;;;;;;;2.47;0.90;;;;;;;;;;4955074;28;20073;-60
2022/09/19 14:18:15;;;;;;;4.93;1.10;;;;;;;;;;4953996;28;20538;-61
2022/09/19 14:20:47;;;;;;;4.45;1.40;;;;;;;;;;4956280;28;21153;-70
2022/09/19 14:23:14;;;;;;;5.07;1.95;;;;;;;;;;5052165;28;20048;-66
2022/09/19 14:25:39;;;;;;;2.30;1.20;;;;;;;;;;5061891;28;20435;-65
2022/09/19 14:28:08;;;;;;;5.95;1.20;;;;;;;;;;5082059;28;20528;-66
2022/09/19 14:30:45;;;;;;;2.38;1.10;;;;;;;;;;5048136;28;20094;-66
2022/09/19 14:33:13;;;;;;;7.30;1.02;;;;;;;;;;5063339;28;20541;-68
2022/09/19 14:35:39;;;;;;;2.03;1.00;;;;;;;;;;5074582;28;20055;-59
2022/09/19 14:38:34;;;;;;;3.13;0.90;;;;;;;;;;5079134;28;20044;-63
2022/09/19 14:41:32;;;;;;;1.63;0.80;;;;;;;;;;5008147;28;20110;-62
2022/09/19 14:44:00;;;;;;;1.88;0.88;;;;;;;;;;4949028;28;20055;-63
2022/09/19 14:46:28;;;;;;;1.67;0.90;;;;;;;;;;4956384;28;20046;-60
2022/09/19 14:49:06;;;;;;;1.92;0.80;;;;;;;;;;4956438;28;20044;-61
2022/09/19 14:51:31;;;;;;;2.00;0.90;;;;;;;;;;4959620;28;20054;-62
2022/09/19 14:54:03;;;;;;;2.10;0.80;;;;;;;;;;4958022;28;20043;-59
2022/09/19 14:56:29;;;;;;;1.23;0.70;;;;;;;;;;4951143;28;20119;-60
2022/09/19 14:58:54;;;;;;;5.20;0.95;;;;;;;;;;4950363;28;20127;-61
2022/09/19 15:01:27;;;;;;;2.07;0.90;;;;;;;;;;4951390;28;20534;-61
2022/09/19 15:03:52;;;;;;;;;;;;;;;;;;4948615;28;20063;-59
2022/09/19 15:06:22;;;;;;;1.90;0.80;;;;;;;;;;4956942;28;19922;-58
2022/09/19 15:08:48;;;;;;;1.20;0.70;;;;;;;;;;4950063;28;20074;-62
2022/09/19 15:11:15;;;;;;;2.00;0.70;;;;;;;;;;4952166;28;20520;-61
2022/09/19 15:13:45;;;;;;;1.92;0.90;;;;;;;;;;4960737;28;20051;-62
2022/09/19 15:16:10;;;;;;;2.08;0.82;;;;;;;;;;4950259;28;20039;-61
2022/09/19 15:18:43;;;;;;;2.60;0.80;;;;;;;;;;5008043;28;20053;-62